sensor_id;sensor_type;location;lat;lon;timestamp;pressure;altitude;pressure_sealevel;temperature;humidity
63281;BME280;49406;51.044;3.766;2023-02-19T00:01:26;102135.08;;;10.76;100.00
63281;BME280;49406;51.044;3.766;2023-02-19T00:04:03;102123.45;;;10.74;100.00
63281;BME280;49406;51.044;3.766;2023-02-19T00:06:38;102125.48;;;10.71;100.00
63281;BME280;49406;51.044;3.766;2023-02-19T00:09:16;102126.18;;;10.71;100.00
63281;BME280;49406;51.044;3.766;2023-02-19T00:11:51;102118.98;;;10.70;100.00
63281;BME280;49406;51.044;3.766;2023-02-19T00:14:25;102118.42;;;10.69;100.00
63281;BME280;49406;51.044;3.766;2023-02-19T00:17:00;102115.39;;;10.67;100.00
63281;BME280;49406;51.044;3.766;2023-02-19T00:19:35;102124.75;;;10.70;100.00
63281;BME280;49406;51.044;3.766;2023-02-19T00:22:09;102130.69;;;10.70;100.00
63281;BME280;49406;51.044;3.766;2023-02-19T00:24:44;102122.39;;;10.67;100.00
63281;BME280;49406;51.044;3.766;2023-02-19T00:27:19;102135.93;;;10.70;100.00
63281;BME280;49406;51.044;3.766;2023-02-19T00:29:53;102138.27;;;10.66;100.00
63281;BME280;49406;51.044;3.766;2023-02-19T00:32:28;102136.88;;;10.66;100.00
63281;BME280;49406;51.044;3.766;2023-02-19T00:35:03;102137.90;;;10.65;100.00
63281;BME280;49406;51.044;3.766;2023-02-19T00:37:38;102139.11;;;10.64;100.00
63281;BME280;49406;51.044;3.766;2023-02-19T00:40:12;102134.72;;;10.64;100.00
63281;BME280;49406;51.044;3.766;2023-02-19T00:42:47;102132.96;;;10.63;100.00
63281;BME280;49406;51.044;3.766;2023-02-19T00:45:22;102126.27;;;10.62;100.00
63281;BME280;49406;51.044;3.766;2023-02-19T00:47:57;102124.58;;;10.58;100.00
63281;BME280;49406;51.044;3.766;2023-02-19T00:50:31;102131.86;;;10.55;100.00
63281;BME280;49406;51.044;3.766;2023-02-19T00:53:06;102136.04;;;10.55;100.00
63281;BME280;49406;51.044;3.766;2023-02-19T00:55:41;102142.18;;;10.56;100.00
63281;BME280;49406;51.044;3.766;2023-02-19T00:58:16;102136.95;;;10.57;100.00
63281;BME280;49406;51.044;3.766;2023-02-19T01:00:51;102138.20;;;10.58;100.00
63281;BME280;49406;51.044;3.766;2023-02-19T01:03:25;102152.60;;;10.59;100.00
63281;BME280;49406;51.044;3.766;2023-02-19T01:06:00;102151.88;;;10.58;100.00
63281;BME280;49406;51.044;3.766;2023-02-19T01:08:36;102152.59;;;10.58;100.00
63281;BME280;49406;51.044;3.766;2023-02-19T01:11:11;102151.58;;;10.60;100.00
63281;BME280;49406;51.044;3.766;2023-02-19T01:13:45;102153.18;;;10.61;100.00
63281;BME280;49406;51.044;3.766;2023-02-19T01:16:22;102154.38;;;10.60;100.00
63281;BME280;49406;51.044;3.766;2023-02-19T01:18:57;102153.34;;;10.60;100.00
63281;BME280;49406;51.044;3.766;2023-02-19T01:21:32;102160.66;;;10.60;100.00
63281;BME280;49406;51.044;3.766;2023-02-19T01:24:07;102162.38;;;10.58;100.00
63281;BME280;49406;51.044;3.766;2023-02-19T01:26:42;102162.73;;;10.59;100.00
63281;BME280;49406;51.044;3.766;2023-02-19T01:29:17;102168.67;;;10.58;100.00
63281;BME280;49406;51.044;3.766;2023-02-19T01:31:51;102175.52;;;10.59;100.00
63281;BME280;49406;51.044;3.766;2023-02-19T01:34:26;102174.14;;;10.60;100.00
63281;BME280;49406;51.044;3.766;2023-02-19T01:37:05;102165.08;;;10.61;100.00
63281;BME280;49406;51.044;3.766;2023-02-19T01:39:44;102168.38;;;10.60;100.00
63281;BME280;49406;51.044;3.766;2023-02-19T01:42:19;102170.90;;;10.58;100.00
63281;BME280;49406;51.044;3.766;2023-02-19T01:45:22;102178.23;;;10.57;100.00
63281;BME280;49406;51.044;3.766;2023-02-19T01:48:02;102175.05;;;10.55;100.00
63281;BME280;49406;51.044;3.766;2023-02-19T01:50:45;102174.27;;;10.59;100.00
63281;BME280;49406;51.044;3.766;2023-02-19T01:53:23;102178.33;;;10.59;100.00
63281;BME280;49406;51.044;3.766;2023-02-19T01:56:00;102173.58;;;10.59;100.00
63281;BME280;49406;51.044;3.766;2023-02-19T01:58:37;102180.52;;;10.57;100.00
63281;BME280;49406;51.044;3.766;2023-02-19T02:01:13;102181.58;;;10.58;100.00
63281;BME280;49406;51.044;3.766;2023-02-19T02:03:48;102186.08;;;10.56;100.00
63281;BME280;49406;51.044;3.766;2023-02-19T02:06:26;102178.32;;;10.53;100.00
63281;BME280;49406;51.044;3.766;2023-02-19T02:09:03;102180.79;;;10.54;100.00
63281;BME280;49406;51.044;3.766;2023-02-19T02:11:55;102178.51;;;10.54;100.00
63281;BME280;49406;51.044;3.766;2023-02-19T02:14:33;102186.91;;;10.54;100.00
63281;BME280;49406;51.044;3.766;2023-02-19T02:17:23;102186.52;;;10.53;100.00
63281;BME280;49406;51.044;3.766;2023-02-19T02:20:19;102180.91;;;10.52;100.00
63281;BME280;49406;51.044;3.766;2023-02-19T02:23:03;102187.16;;;10.51;100.00
63281;BME280;49406;51.044;3.766;2023-02-19T02:26:00;102186.29;;;10.51;100.00
63281;BME280;49406;51.044;3.766;2023-02-19T02:31:50;102186.80;;;10.50;100.00
63281;BME280;49406;51.044;3.766;2023-02-19T02:34:32;102187.64;;;10.49;100.00
63281;BME280;49406;51.044;3.766;2023-02-19T02:37:09;102188.35;;;10.49;100.00
63281;BME280;49406;51.044;3.766;2023-02-19T02:39:47;102187.06;;;10.47;100.00
63281;BME280;49406;51.044;3.766;2023-02-19T02:42:23;102187.48;;;10.50;100.00
63281;BME280;49406;51.044;3.766;2023-02-19T02:45:24;102184.36;;;10.51;100.00
63281;BME280;49406;51.044;3.766;2023-02-19T02:48:16;102185.05;;;10.51;100.00
63281;BME280;49406;51.044;3.766;2023-02-19T02:50:55;102184.58;;;10.52;100.00
63281;BME280;49406;51.044;3.766;2023-02-19T02:53:35;102182.83;;;10.52;100.00
63281;BME280;49406;51.044;3.766;2023-02-19T02:56:30;102188.11;;;10.53;100.00
63281;BME280;49406;51.044;3.766;2023-02-19T02:59:07;102188.61;;;10.52;100.00
63281;BME280;49406;51.044;3.766;2023-02-19T03:01:45;102192.02;;;10.56;100.00
63281;BME280;49406;51.044;3.766;2023-02-19T03:04:45;102193.56;;;10.54;100.00
63281;BME280;49406;51.044;3.766;2023-02-19T03:07:44;102192.98;;;10.53;100.00
63281;BME280;49406;51.044;3.766;2023-02-19T03:10:22;102198.95;;;10.53;100.00
63281;BME280;49406;51.044;3.766;2023-02-19T03:13:00;102202.77;;;10.52;100.00
63281;BME280;49406;51.044;3.766;2023-02-19T03:15:57;102205.85;;;10.50;100.00
63281;BME280;49406;51.044;3.766;2023-02-19T03:18:50;102207.80;;;10.50;100.00
63281;BME280;49406;51.044;3.766;2023-02-19T03:21:46;102210.17;;;10.48;100.00
63281;BME280;49406;51.044;3.766;2023-02-19T03:24:25;102214.59;;;10.49;100.00
63281;BME280;49406;51.044;3.766;2023-02-19T03:27:20;102213.33;;;10.49;100.00
63281;BME280;49406;51.044;3.766;2023-02-19T03:29:58;102215.36;;;10.46;100.00
63281;BME280;49406;51.044;3.766;2023-02-19T03:32:38;102218.73;;;10.48;100.00
63281;BME280;49406;51.044;3.766;2023-02-19T03:35:15;102220.98;;;10.47;100.00
63281;BME280;49406;51.044;3.766;2023-02-19T03:37:56;102220.80;;;10.47;100.00
63281;BME280;49406;51.044;3.766;2023-02-19T03:40:40;102224.78;;;10.46;100.00
63281;BME280;49406;51.044;3.766;2023-02-19T03:43:20;102229.14;;;10.45;100.00
63281;BME280;49406;51.044;3.766;2023-02-19T03:45:57;102231.04;;;10.44;100.00
63281;BME280;49406;51.044;3.766;2023-02-19T03:48:40;102229.90;;;10.42;100.00
63281;BME280;49406;51.044;3.766;2023-02-19T03:51:29;102240.77;;;10.42;100.00
63281;BME280;49406;51.044;3.766;2023-02-19T03:54:12;102246.65;;;10.41;100.00
63281;BME280;49406;51.044;3.766;2023-02-19T03:56:56;102250.09;;;10.39;100.00
63281;BME280;49406;51.044;3.766;2023-02-19T03:59:36;102253.02;;;10.38;100.00
63281;BME280;49406;51.044;3.766;2023-02-19T04:02:17;102251.90;;;10.36;100.00
63281;BME280;49406;51.044;3.766;2023-02-19T04:04:57;102252.43;;;10.36;100.00
63281;BME280;49406;51.044;3.766;2023-02-19T04:07:38;102256.78;;;10.35;100.00
63281;BME280;49406;51.044;3.766;2023-02-19T04:10:15;102264.48;;;10.35;100.00
63281;BME280;49406;51.044;3.766;2023-02-19T04:12:54;102262.56;;;10.35;100.00
63281;BME280;49406;51.044;3.766;2023-02-19T04:15:33;102265.38;;;10.36;100.00
63281;BME280;49406;51.044;3.766;2023-02-19T04:18:10;102258.70;;;10.35;100.00
63281;BME280;49406;51.044;3.766;2023-02-19T04:20:48;102262.39;;;10.36;100.00
63281;BME280;49406;51.044;3.766;2023-02-19T04:23:26;102270.73;;;10.34;100.00
63281;BME280;49406;51.044;3.766;2023-02-19T04:26:04;102274.42;;;10.34;100.00
63281;BME280;49406;51.044;3.766;2023-02-19T04:28:40;102276.48;;;10.34;100.00
63281;BME280;49406;51.044;3.766;2023-02-19T04:31:16;102278.11;;;10.35;100.00
63281;BME280;49406;51.044;3.766;2023-02-19T04:33:51;102279.02;;;10.37;100.00
63281;BME280;49406;51.044;3.766;2023-02-19T04:36:25;102279.49;;;10.35;100.00
63281;BME280;49406;51.044;3.766;2023-02-19T04:39:00;102281.60;;;10.35;100.00
63281;BME280;49406;51.044;3.766;2023-02-19T04:41:35;102278.98;;;10.35;100.00
63281;BME280;49406;51.044;3.766;2023-02-19T04:44:09;102283.30;;;10.33;100.00
63281;BME280;49406;51.044;3.766;2023-02-19T04:46:44;102290.34;;;10.35;100.00
63281;BME280;49406;51.044;3.766;2023-02-19T04:49:19;102290.70;;;10.35;100.00
63281;BME280;49406;51.044;3.766;2023-02-19T04:51:52;102292.98;;;10.36;100.00
63281;BME280;49406;51.044;3.766;2023-02-19T04:54:27;102296.55;;;10.37;100.00
63281;BME280;49406;51.044;3.766;2023-02-19T04:57:02;102296.66;;;10.35;100.00
63281;BME280;49406;51.044;3.766;2023-02-19T04:59:36;102299.10;;;10.35;100.00
63281;BME280;49406;51.044;3.766;2023-02-19T05:02:11;102308.39;;;10.36;100.00
63281;BME280;49406;51.044;3.766;2023-02-19T05:04:46;102307.53;;;10.37;100.00
63281;BME280;49406;51.044;3.766;2023-02-19T05:07:21;102303.42;;;10.34;100.00
63281;BME280;49406;51.044;3.766;2023-02-19T05:09:55;102313.58;;;10.34;100.00
63281;BME280;49406;51.044;3.766;2023-02-19T05:12:32;102310.73;;;10.33;100.00
63281;BME280;49406;51.044;3.766;2023-02-19T05:15:07;102320.69;;;10.32;100.00
63281;BME280;49406;51.044;3.766;2023-02-19T05:17:42;102323.65;;;10.33;100.00
63281;BME280;49406;51.044;3.766;2023-02-19T05:20:17;102325.90;;;10.31;100.00
63281;BME280;49406;51.044;3.766;2023-02-19T05:22:51;102331.81;;;10.31;100.00
63281;BME280;49406;51.044;3.766;2023-02-19T05:25:26;102336.31;;;10.29;100.00
63281;BME280;49406;51.044;3.766;2023-02-19T05:28:01;102338.02;;;10.28;100.00
63281;BME280;49406;51.044;3.766;2023-02-19T05:30:50;102336.00;;;10.25;100.00
63281;BME280;49406;51.044;3.766;2023-02-19T05:33:26;102340.96;;;10.27;100.00
63281;BME280;49406;51.044;3.766;2023-02-19T05:36:05;102334.95;;;10.25;100.00
63281;BME280;49406;51.044;3.766;2023-02-19T05:38:41;102343.77;;;10.27;100.00
63281;BME280;49406;51.044;3.766;2023-02-19T05:41:17;102350.02;;;10.26;100.00
63281;BME280;49406;51.044;3.766;2023-02-19T05:43:53;102358.05;;;10.26;100.00
63281;BME280;49406;51.044;3.766;2023-02-19T05:46:29;102356.80;;;10.25;100.00
63281;BME280;49406;51.044;3.766;2023-02-19T05:49:04;102362.54;;;10.29;100.00
63281;BME280;49406;51.044;3.766;2023-02-19T05:51:38;102363.94;;;10.29;100.00
63281;BME280;49406;51.044;3.766;2023-02-19T05:54:13;102364.17;;;10.31;100.00
63281;BME280;49406;51.044;3.766;2023-02-19T05:56:48;102365.19;;;10.30;100.00
63281;BME280;49406;51.044;3.766;2023-02-19T05:59:24;102369.59;;;10.31;100.00
63281;BME280;49406;51.044;3.766;2023-02-19T06:01:59;102374.84;;;10.31;100.00
63281;BME280;49406;51.044;3.766;2023-02-19T06:04:33;102380.45;;;10.32;100.00
63281;BME280;49406;51.044;3.766;2023-02-19T06:07:08;102377.03;;;10.29;100.00
63281;BME280;49406;51.044;3.766;2023-02-19T06:09:42;102381.25;;;10.29;100.00
63281;BME280;49406;51.044;3.766;2023-02-19T06:12:17;102387.70;;;10.29;100.00
63281;BME280;49406;51.044;3.766;2023-02-19T06:14:50;102385.81;;;10.30;100.00
63281;BME280;49406;51.044;3.766;2023-02-19T06:17:25;102385.84;;;10.31;100.00
63281;BME280;49406;51.044;3.766;2023-02-19T06:20:00;102386.39;;;10.32;100.00
63281;BME280;49406;51.044;3.766;2023-02-19T06:22:34;102386.62;;;10.28;100.00
63281;BME280;49406;51.044;3.766;2023-02-19T06:25:09;102386.58;;;10.27;100.00
63281;BME280;49406;51.044;3.766;2023-02-19T06:27:45;102390.46;;;10.28;100.00
63281;BME280;49406;51.044;3.766;2023-02-19T06:30:20;102394.14;;;10.28;100.00
63281;BME280;49406;51.044;3.766;2023-02-19T06:32:54;102395.51;;;10.27;100.00
63281;BME280;49406;51.044;3.766;2023-02-19T06:35:29;102403.52;;;10.27;100.00
63281;BME280;49406;51.044;3.766;2023-02-19T06:38:04;102406.32;;;10.27;100.00
63281;BME280;49406;51.044;3.766;2023-02-19T06:40:39;102405.06;;;10.25;100.00
63281;BME280;49406;51.044;3.766;2023-02-19T06:43:13;102402.48;;;10.22;100.00
63281;BME280;49406;51.044;3.766;2023-02-19T06:45:48;102404.10;;;10.24;100.00
63281;BME280;49406;51.044;3.766;2023-02-19T06:48:23;102399.58;;;10.19;100.00
63281;BME280;49406;51.044;3.766;2023-02-19T06:50:57;102404.80;;;10.20;100.00
63281;BME280;49406;51.044;3.766;2023-02-19T06:53:32;102404.43;;;10.19;100.00
63281;BME280;49406;51.044;3.766;2023-02-19T06:56:20;102400.88;;;10.17;100.00
63281;BME280;49406;51.044;3.766;2023-02-19T06:58:57;102407.42;;;10.19;100.00
63281;BME280;49406;51.044;3.766;2023-02-19T07:01:34;102413.88;;;10.19;100.00
63281;BME280;49406;51.044;3.766;2023-02-19T07:04:09;102410.34;;;10.18;100.00
63281;BME280;49406;51.044;3.766;2023-02-19T07:06:44;102413.40;;;10.15;100.00
63281;BME280;49406;51.044;3.766;2023-02-19T07:09:18;102421.02;;;10.18;100.00
63281;BME280;49406;51.044;3.766;2023-02-19T07:11:53;102424.33;;;10.18;100.00
63281;BME280;49406;51.044;3.766;2023-02-19T07:14:28;102428.77;;;10.19;100.00
63281;BME280;49406;51.044;3.766;2023-02-19T07:17:01;102432.65;;;10.20;100.00
63281;BME280;49406;51.044;3.766;2023-02-19T07:19:36;102433.17;;;10.20;100.00
63281;BME280;49406;51.044;3.766;2023-02-19T07:22:11;102437.42;;;10.22;100.00
63281;BME280;49406;51.044;3.766;2023-02-19T07:24:45;102442.15;;;10.22;100.00
63281;BME280;49406;51.044;3.766;2023-02-19T07:27:20;102451.69;;;10.24;100.00
63281;BME280;49406;51.044;3.766;2023-02-19T07:29:54;102458.23;;;10.26;100.00
63281;BME280;49406;51.044;3.766;2023-02-19T07:32:29;102457.91;;;10.27;100.00
63281;BME280;49406;51.044;3.766;2023-02-19T07:35:05;102463.21;;;10.29;100.00
63281;BME280;49406;51.044;3.766;2023-02-19T07:37:40;102468.69;;;10.30;100.00
63281;BME280;49406;51.044;3.766;2023-02-19T07:40:15;102469.34;;;10.29;100.00
63281;BME280;49406;51.044;3.766;2023-02-19T07:42:50;102474.55;;;10.28;100.00
63281;BME280;49406;51.044;3.766;2023-02-19T07:45:25;102474.78;;;10.30;100.00
63281;BME280;49406;51.044;3.766;2023-02-19T07:47:59;102480.41;;;10.31;100.00
63281;BME280;49406;51.044;3.766;2023-02-19T07:50:34;102487.97;;;10.32;100.00
63281;BME280;49406;51.044;3.766;2023-02-19T07:53:09;102494.84;;;10.34;100.00
63281;BME280;49406;51.044;3.766;2023-02-19T07:55:43;102495.90;;;10.34;100.00
63281;BME280;49406;51.044;3.766;2023-02-19T07:58:18;102497.44;;;10.33;100.00
63281;BME280;49406;51.044;3.766;2023-02-19T08:00:53;102503.61;;;10.35;100.00
63281;BME280;49406;51.044;3.766;2023-02-19T08:03:28;102503.09;;;10.34;100.00
63281;BME280;49406;51.044;3.766;2023-02-19T08:06:03;102510.13;;;10.36;100.00
63281;BME280;49406;51.044;3.766;2023-02-19T08:08:38;102509.80;;;10.36;100.00
63281;BME280;49406;51.044;3.766;2023-02-19T08:11:13;102517.96;;;10.40;100.00
63281;BME280;49406;51.044;3.766;2023-02-19T08:14:05;102523.61;;;10.41;100.00
63281;BME280;49406;51.044;3.766;2023-02-19T08:16:43;102526.13;;;10.42;100.00
63281;BME280;49406;51.044;3.766;2023-02-19T08:19:21;102535.88;;;10.46;100.00
63281;BME280;49406;51.044;3.766;2023-02-19T08:21:56;102535.48;;;10.50;100.00
63281;BME280;49406;51.044;3.766;2023-02-19T08:24:31;102541.45;;;10.51;100.00
63281;BME280;49406;51.044;3.766;2023-02-19T08:27:06;102544.71;;;10.54;100.00
63281;BME280;49406;51.044;3.766;2023-02-19T08:29:40;102550.46;;;10.59;100.00
63281;BME280;49406;51.044;3.766;2023-02-19T08:32:15;102550.65;;;10.59;100.00
63281;BME280;49406;51.044;3.766;2023-02-19T08:34:50;102561.50;;;10.64;100.00
63281;BME280;49406;51.044;3.766;2023-02-19T08:37:24;102565.27;;;10.67;100.00
63281;BME280;49406;51.044;3.766;2023-02-19T08:39:59;102569.85;;;10.68;100.00
63281;BME280;49406;51.044;3.766;2023-02-19T08:42:34;102569.29;;;10.67;100.00
63281;BME280;49406;51.044;3.766;2023-02-19T08:45:09;102577.56;;;10.73;100.00
63281;BME280;49406;51.044;3.766;2023-02-19T08:47:44;102574.02;;;10.76;100.00
63281;BME280;49406;51.044;3.766;2023-02-19T08:50:19;102579.84;;;10.78;100.00
63281;BME280;49406;51.044;3.766;2023-02-19T08:52:54;102584.88;;;10.77;100.00
63281;BME280;49406;51.044;3.766;2023-02-19T08:55:29;102590.96;;;10.75;100.00
63281;BME280;49406;51.044;3.766;2023-02-19T08:58:04;102595.98;;;10.79;100.00
63281;BME280;49406;51.044;3.766;2023-02-19T09:00:38;102590.95;;;10.80;100.00
63281;BME280;49406;51.044;3.766;2023-02-19T09:03:13;102586.52;;;10.84;100.00
63281;BME280;49406;51.044;3.766;2023-02-19T09:05:48;102586.73;;;10.85;100.00
63281;BME280;49406;51.044;3.766;2023-02-19T09:08:22;102584.78;;;10.89;100.00
63281;BME280;49406;51.044;3.766;2023-02-19T09:11:02;102580.80;;;10.95;100.00
63281;BME280;49406;51.044;3.766;2023-02-19T09:13:39;102592.02;;;10.96;99.99
63281;BME280;49406;51.044;3.766;2023-02-19T09:16:14;102600.13;;;10.98;100.00
63281;BME280;49406;51.044;3.766;2023-02-19T09:18:48;102602.36;;;11.02;100.00
63281;BME280;49406;51.044;3.766;2023-02-19T09:21:23;102599.66;;;11.05;99.87
63281;BME280;49406;51.044;3.766;2023-02-19T09:23:57;102604.78;;;11.06;99.61
63281;BME280;49406;51.044;3.766;2023-02-19T09:26:32;102604.61;;;11.06;99.73
63281;BME280;49406;51.044;3.766;2023-02-19T09:29:07;102604.23;;;11.10;99.86
63281;BME280;49406;51.044;3.766;2023-02-19T09:31:42;102604.84;;;11.12;99.53
63281;BME280;49406;51.044;3.766;2023-02-19T09:34:16;102604.08;;;11.10;98.81
63281;BME280;49406;51.044;3.766;2023-02-19T09:36:51;102591.81;;;11.05;98.55
63281;BME280;49406;51.044;3.766;2023-02-19T09:39:26;102592.39;;;11.07;98.20
63281;BME280;49406;51.044;3.766;2023-02-19T09:42:03;102604.96;;;11.06;98.66
63281;BME280;49406;51.044;3.766;2023-02-19T09:44:44;102613.09;;;11.13;98.87
63281;BME280;49406;51.044;3.766;2023-02-19T09:47:22;102611.70;;;11.13;97.69
63281;BME280;49406;51.044;3.766;2023-02-19T09:50:00;102615.95;;;11.15;97.86
63281;BME280;49406;51.044;3.766;2023-02-19T09:52:37;102605.86;;;11.17;97.61
63281;BME280;49406;51.044;3.766;2023-02-19T09:55:17;102606.52;;;11.16;97.20
63281;BME280;49406;51.044;3.766;2023-02-19T09:57:54;102621.45;;;11.18;97.41
63281;BME280;49406;51.044;3.766;2023-02-19T10:00:33;102625.70;;;11.19;96.94
63281;BME280;49406;51.044;3.766;2023-02-19T10:03:13;102629.48;;;11.22;97.45
63281;BME280;49406;51.044;3.766;2023-02-19T10:05:54;102625.83;;;11.23;96.90
63281;BME280;49406;51.044;3.766;2023-02-19T10:08:32;102637.17;;;11.22;96.97
63281;BME280;49406;51.044;3.766;2023-02-19T10:11:08;102632.31;;;11.23;97.20
63281;BME280;49406;51.044;3.766;2023-02-19T10:13:48;102644.38;;;11.23;96.76
63281;BME280;49406;51.044;3.766;2023-02-19T10:16:23;102650.19;;;11.19;96.89
63281;BME280;49406;51.044;3.766;2023-02-19T10:18:59;102662.62;;;11.24;96.91
63281;BME280;49406;51.044;3.766;2023-02-19T10:21:34;102661.51;;;11.26;97.20
63281;BME280;49406;51.044;3.766;2023-02-19T10:24:17;102662.66;;;11.24;96.86
63281;BME280;49406;51.044;3.766;2023-02-19T10:26:53;102664.35;;;11.18;96.92
63281;BME280;49406;51.044;3.766;2023-02-19T10:29:28;102666.74;;;11.16;97.18
63281;BME280;49406;51.044;3.766;2023-02-19T10:32:17;102679.60;;;11.13;97.30
63281;BME280;49406;51.044;3.766;2023-02-19T10:37:56;102683.28;;;11.23;97.81
63281;BME280;49406;51.044;3.766;2023-02-19T10:40:31;102677.11;;;11.27;97.52
63281;BME280;49406;51.044;3.766;2023-02-19T10:43:07;102678.23;;;11.29;97.14
63281;BME280;49406;51.044;3.766;2023-02-19T10:45:53;102689.20;;;11.32;97.43
63281;BME280;49406;51.044;3.766;2023-02-19T10:48:31;102691.77;;;11.35;97.19
63281;BME280;49406;51.044;3.766;2023-02-19T10:51:09;102704.17;;;11.40;97.50
63281;BME280;49406;51.044;3.766;2023-02-19T10:54:06;102704.93;;;11.42;97.18
63281;BME280;49406;51.044;3.766;2023-02-19T10:56:48;102704.00;;;11.40;96.90
63281;BME280;49406;51.044;3.766;2023-02-19T10:59:27;102700.06;;;11.32;96.65
63281;BME280;49406;51.044;3.766;2023-02-19T11:02:07;102710.75;;;11.27;96.70
63281;BME280;49406;51.044;3.766;2023-02-19T11:05:14;102714.36;;;11.15;96.31
63281;BME280;49406;51.044;3.766;2023-02-19T11:07:51;102720.02;;;11.08;96.87
63281;BME280;49406;51.044;3.766;2023-02-19T11:10:29;102724.73;;;11.03;97.37
63281;BME280;49406;51.044;3.766;2023-02-19T11:13:12;102727.91;;;10.98;97.88
63281;BME280;49406;51.044;3.766;2023-02-19T11:15:52;102731.55;;;10.97;98.34
63281;BME280;49406;51.044;3.766;2023-02-19T11:18:29;102735.77;;;10.97;98.50
63281;BME280;49406;51.044;3.766;2023-02-19T11:21:06;102734.78;;;10.94;98.26
63281;BME280;49406;51.044;3.766;2023-02-19T11:23:45;102736.19;;;10.95;97.92
63281;BME280;49406;51.044;3.766;2023-02-19T11:26:21;102740.14;;;10.92;97.03
63281;BME280;49406;51.044;3.766;2023-02-19T11:28:58;102741.60;;;10.94;97.14
63281;BME280;49406;51.044;3.766;2023-02-19T11:31:34;102739.31;;;10.99;96.41
63281;BME280;49406;51.044;3.766;2023-02-19T11:34:30;102741.77;;;10.99;95.22
63281;BME280;49406;51.044;3.766;2023-02-19T11:37:12;102739.45;;;10.98;95.13
63281;BME280;49406;51.044;3.766;2023-02-19T11:39:48;102745.45;;;10.99;95.20
63281;BME280;49406;51.044;3.766;2023-02-19T11:42:38;102743.65;;;10.98;94.94
63281;BME280;49406;51.044;3.766;2023-02-19T11:45:25;102732.66;;;11.04;95.49
63281;BME280;49406;51.044;3.766;2023-02-19T11:48:29;102725.55;;;11.06;94.56
63281;BME280;49406;51.044;3.766;2023-02-19T11:51:17;102710.65;;;11.05;95.08
63281;BME280;49406;51.044;3.766;2023-02-19T11:54:03;102698.45;;;11.06;94.77
63281;BME280;49406;51.044;3.766;2023-02-19T11:56:41;102686.27;;;11.08;95.19
63281;BME280;49406;51.044;3.766;2023-02-19T11:59:23;102684.15;;;11.08;94.98
63281;BME280;49406;51.044;3.766;2023-02-19T12:02:20;102687.16;;;11.04;95.14
63281;BME280;49406;51.044;3.766;2023-02-19T12:05:11;102691.94;;;11.00;95.60
63281;BME280;49406;51.044;3.766;2023-02-19T12:11:43;102691.11;;;10.97;95.82
63281;BME280;49406;51.044;3.766;2023-02-19T12:17:49;102694.07;;;11.11;96.50
63281;BME280;49406;51.044;3.766;2023-02-19T12:20:33;102695.22;;;11.13;96.04
63281;BME280;49406;51.044;3.766;2023-02-19T12:23:36;102700.69;;;11.10;94.57
63281;BME280;49406;51.044;3.766;2023-02-19T12:26:23;102711.46;;;10.98;93.60
63281;BME280;49406;51.044;3.766;2023-02-19T12:29:22;102714.41;;;10.93;93.87
63281;BME280;49406;51.044;3.766;2023-02-19T12:32:13;102722.40;;;10.82;93.19
63281;BME280;49406;51.044;3.766;2023-02-19T12:35:05;102724.52;;;10.73;93.59
63281;BME280;49406;51.044;3.766;2023-02-19T12:37:54;102729.75;;;10.68;94.38
63281;BME280;49406;51.044;3.766;2023-02-19T12:40:41;102736.33;;;10.66;94.79
63281;BME280;49406;51.044;3.766;2023-02-19T12:43:22;102750.48;;;10.61;93.98
63281;BME280;49406;51.044;3.766;2023-02-19T12:45:59;102759.07;;;10.57;94.09
63281;BME280;49406;51.044;3.766;2023-02-19T12:48:39;102771.71;;;10.54;93.91
63281;BME280;49406;51.044;3.766;2023-02-19T12:51:23;102769.93;;;10.48;94.11
63281;BME280;49406;51.044;3.766;2023-02-19T12:54:02;102769.75;;;10.48;94.50
63281;BME280;49406;51.044;3.766;2023-02-19T12:56:41;102771.38;;;10.45;94.13
63281;BME280;49406;51.044;3.766;2023-02-19T12:59:19;102768.20;;;10.40;94.37
63281;BME280;49406;51.044;3.766;2023-02-19T13:02:02;102768.05;;;10.41;94.86
63281;BME280;49406;51.044;3.766;2023-02-19T13:04:44;102758.89;;;10.43;94.81
63281;BME280;49406;51.044;3.766;2023-02-19T13:07:23;102756.08;;;10.43;94.65
63281;BME280;49406;51.044;3.766;2023-02-19T13:10:21;102753.33;;;10.40;95.01
63281;BME280;49406;51.044;3.766;2023-02-19T13:13:02;102754.15;;;10.39;95.94
63281;BME280;49406;51.044;3.766;2023-02-19T13:15:41;102751.41;;;10.35;96.67
63281;BME280;49406;51.044;3.766;2023-02-19T13:18:19;102752.89;;;10.33;96.51
63281;BME280;49406;51.044;3.766;2023-02-19T13:20:56;102756.64;;;10.31;97.06
63281;BME280;49406;51.044;3.766;2023-02-19T13:23:32;102763.05;;;10.25;97.54
63281;BME280;49406;51.044;3.766;2023-02-19T13:26:46;102770.59;;;10.18;98.44
63281;BME280;49406;51.044;3.766;2023-02-19T13:29:36;102781.55;;;10.12;99.46
63281;BME280;49406;51.044;3.766;2023-02-19T13:32:38;102786.60;;;10.08;100.00
63281;BME280;49406;51.044;3.766;2023-02-19T13:35:27;102781.48;;;10.10;100.00
63281;BME280;49406;51.044;3.766;2023-02-19T13:38:10;102787.02;;;10.13;100.00
63281;BME280;49406;51.044;3.766;2023-02-19T13:40:54;102787.91;;;10.14;100.00
63281;BME280;49406;51.044;3.766;2023-02-19T13:43:31;102789.34;;;10.15;100.00
63281;BME280;49406;51.044;3.766;2023-02-19T13:46:06;102788.88;;;10.12;100.00
63281;BME280;49406;51.044;3.766;2023-02-19T13:48:42;102792.84;;;10.10;100.00
63281;BME280;49406;51.044;3.766;2023-02-19T13:51:42;102787.95;;;10.06;100.00
63281;BME280;49406;51.044;3.766;2023-02-19T13:54:29;102785.64;;;9.97;100.00
63281;BME280;49406;51.044;3.766;2023-02-19T13:57:27;102798.16;;;9.83;100.00